sensor_id;sensor_type;location;lat;lon;timestamp;temperature;humidity
46356;DHT22;32066;49.474;11.106;2023-06-22T00:01:05;21.50;99.90
46356;DHT22;32066;49.474;11.106;2023-06-22T00:03:36;21.50;99.90
46356;DHT22;32066;49.474;11.106;2023-06-22T00:06:05;21.50;99.90
46356;DHT22;32066;49.474;11.106;2023-06-22T00:08:33;21.60;99.90
46356;DHT22;32066;49.474;11.106;2023-06-22T00:11:02;21.50;99.90
46356;DHT22;32066;49.474;11.106;2023-06-22T00:13:30;21.60;99.90
46356;DHT22;32066;49.474;11.106;2023-06-22T00:15:59;21.60;99.90
46356;DHT22;32066;49.474;11.106;2023-06-22T00:18:28;21.60;99.90
46356;DHT22;32066;49.474;11.106;2023-06-22T00:21:00;21.50;99.90
46356;DHT22;32066;49.474;11.106;2023-06-22T00:23:30;21.40;99.90
46356;DHT22;32066;49.474;11.106;2023-06-22T00:25:59;21.40;99.90
46356;DHT22;32066;49.474;11.106;2023-06-22T00:28:28;21.40;99.90
46356;DHT22;32066;49.474;11.106;2023-06-22T00:30:57;21.30;99.90
46356;DHT22;32066;49.474;11.106;2023-06-22T00:33:26;21.40;99.90
46356;DHT22;32066;49.474;11.106;2023-06-22T00:35:54;21.30;99.90
46356;DHT22;32066;49.474;11.106;2023-06-22T00:38:26;21.30;99.90
46356;DHT22;32066;49.474;11.106;2023-06-22T00:40:54;21.30;99.90
46356;DHT22;32066;49.474;11.106;2023-06-22T00:43:23;20.80;99.90
46356;DHT22;32066;49.474;11.106;2023-06-22T00:45:52;20.50;99.90
46356;DHT22;32066;49.474;11.106;2023-06-22T00:48:23;20.60;99.90
46356;DHT22;32066;49.474;11.106;2023-06-22T00:50:52;20.60;99.90
46356;DHT22;32066;49.474;11.106;2023-06-22T00:53:25;20.80;99.90
46356;DHT22;32066;49.474;11.106;2023-06-22T00:55:54;21.00;99.90
46356;DHT22;32066;49.474;11.106;2023-06-22T00:58:25;21.10;99.90
46356;DHT22;32066;49.474;11.106;2023-06-22T01:00:54;21.00;99.90
46356;DHT22;32066;49.474;11.106;2023-06-22T01:03:22;21.10;99.90
46356;DHT22;32066;49.474;11.106;2023-06-22T01:05:51;21.20;99.90
46356;DHT22;32066;49.474;11.106;2023-06-22T01:08:31;21.20;99.90
46356;DHT22;32066;49.474;11.106;2023-06-22T01:11:07;21.40;99.90
46356;DHT22;32066;49.474;11.106;2023-06-22T01:13:41;21.40;99.90
46356;DHT22;32066;49.474;11.106;2023-06-22T01:16:15;21.40;99.90
46356;DHT22;32066;49.474;11.106;2023-06-22T01:18:47;21.40;99.90
46356;DHT22;32066;49.474;11.106;2023-06-22T01:21:19;21.30;99.90
46356;DHT22;32066;49.474;11.106;2023-06-22T01:24:09;21.20;99.90
46356;DHT22;32066;49.474;11.106;2023-06-22T01:26:42;21.20;99.90
46356;DHT22;32066;49.474;11.106;2023-06-22T01:29:14;21.10;99.90
46356;DHT22;32066;49.474;11.106;2023-06-22T01:31:44;21.10;99.90
46356;DHT22;32066;49.474;11.106;2023-06-22T01:34:14;21.00;99.90
46356;DHT22;32066;49.474;11.106;2023-06-22T01:36:43;20.90;99.90
46356;DHT22;32066;49.474;11.106;2023-06-22T01:39:13;20.80;99.90
46356;DHT22;32066;49.474;11.106;2023-06-22T01:41:42;20.90;99.90
46356;DHT22;32066;49.474;11.106;2023-06-22T01:44:17;20.90;99.90
46356;DHT22;32066;49.474;11.106;2023-06-22T01:46:48;20.90;99.90
46356;DHT22;32066;49.474;11.106;2023-06-22T01:49:18;20.80;99.90
46356;DHT22;32066;49.474;11.106;2023-06-22T01:51:47;20.30;99.90
46356;DHT22;32066;49.474;11.106;2023-06-22T01:54:15;20.30;99.90
46356;DHT22;32066;49.474;11.106;2023-06-22T01:56:46;20.40;99.90
46356;DHT22;32066;49.474;11.106;2023-06-22T01:59:21;20.30;99.90
46356;DHT22;32066;49.474;11.106;2023-06-22T02:01:58;20.30;99.90
46356;DHT22;32066;49.474;11.106;2023-06-22T02:04:34;20.40;99.90
46356;DHT22;32066;49.474;11.106;2023-06-22T02:07:08;20.40;99.90
46356;DHT22;32066;49.474;11.106;2023-06-22T02:09:38;20.50;99.90
46356;DHT22;32066;49.474;11.106;2023-06-22T02:12:11;20.60;99.90
46356;DHT22;32066;49.474;11.106;2023-06-22T02:14:44;20.60;99.90
46356;DHT22;32066;49.474;11.106;2023-06-22T02:17:13;20.80;99.90
46356;DHT22;32066;49.474;11.106;2023-06-22T02:19:42;20.70;99.90
46356;DHT22;32066;49.474;11.106;2023-06-22T02:22:11;20.60;99.90
46356;DHT22;32066;49.474;11.106;2023-06-22T02:24:40;20.70;99.90
46356;DHT22;32066;49.474;11.106;2023-06-22T02:27:09;20.60;99.90
46356;DHT22;32066;49.474;11.106;2023-06-22T02:29:38;20.70;99.90
46356;DHT22;32066;49.474;11.106;2023-06-22T02:32:10;20.70;99.90
46356;DHT22;32066;49.474;11.106;2023-06-22T02:34:39;20.80;99.90
46356;DHT22;32066;49.474;11.106;2023-06-22T02:37:08;20.80;99.90
46356;DHT22;32066;49.474;11.106;2023-06-22T02:39:39;20.70;99.90
46356;DHT22;32066;49.474;11.106;2023-06-22T02:42:08;20.70;99.90
46356;DHT22;32066;49.474;11.106;2023-06-22T02:44:38;20.60;99.90
46356;DHT22;32066;49.474;11.106;2023-06-22T02:47:10;20.70;99.90
46356;DHT22;32066;49.474;11.106;2023-06-22T02:49:39;20.90;99.90
46356;DHT22;32066;49.474;11.106;2023-06-22T02:52:07;21.10;99.90
46356;DHT22;32066;49.474;11.106;2023-06-22T02:54:37;21.10;99.90
46356;DHT22;32066;49.474;11.106;2023-06-22T02:57:06;21.10;99.90
46356;DHT22;32066;49.474;11.106;2023-06-22T02:59:41;21.10;99.90
46356;DHT22;32066;49.474;11.106;2023-06-22T03:02:14;21.10;99.90
46356;DHT22;32066;49.474;11.106;2023-06-22T03:04:43;21.10;99.90
46356;DHT22;32066;49.474;11.106;2023-06-22T03:07:14;21.00;99.90
46356;DHT22;32066;49.474;11.106;2023-06-22T03:09:43;21.00;99.90
46356;DHT22;32066;49.474;11.106;2023-06-22T03:12:12;21.00;99.90
46356;DHT22;32066;49.474;11.106;2023-06-22T03:14:48;20.90;99.90
46356;DHT22;32066;49.474;11.106;2023-06-22T03:17:19;20.70;99.90
46356;DHT22;32066;49.474;11.106;2023-06-22T03:19:48;20.60;99.90
46356;DHT22;32066;49.474;11.106;2023-06-22T03:22:17;20.40;99.90
46356;DHT22;32066;49.474;11.106;2023-06-22T03:24:45;20.30;99.90
46356;DHT22;32066;49.474;11.106;2023-06-22T03:27:15;20.20;99.90
46356;DHT22;32066;49.474;11.106;2023-06-22T03:29:44;20.30;99.90
46356;DHT22;32066;49.474;11.106;2023-06-22T03:32:13;20.40;99.90
46356;DHT22;32066;49.474;11.106;2023-06-22T03:34:44;20.20;99.90
46356;DHT22;32066;49.474;11.106;2023-06-22T03:37:13;20.40;99.90
46356;DHT22;32066;49.474;11.106;2023-06-22T03:39:43;20.40;99.90
46356;DHT22;32066;49.474;11.106;2023-06-22T03:42:13;20.40;99.90
46356;DHT22;32066;49.474;11.106;2023-06-22T03:44:41;20.40;99.90
46356;DHT22;32066;49.474;11.106;2023-06-22T03:47:10;20.20;99.90
46356;DHT22;32066;49.474;11.106;2023-06-22T03:49:39;20.30;99.90
46356;DHT22;32066;49.474;11.106;2023-06-22T03:52:10;20.30;99.90
46356;DHT22;32066;49.474;11.106;2023-06-22T03:54:39;20.40;99.90
46356;DHT22;32066;49.474;11.106;2023-06-22T03:57:07;20.20;99.90
46356;DHT22;32066;49.474;11.106;2023-06-22T03:59:36;20.30;99.90
46356;DHT22;32066;49.474;11.106;2023-06-22T04:02:05;20.30;99.90
46356;DHT22;32066;49.474;11.106;2023-06-22T04:04:34;20.40;99.90
46356;DHT22;32066;49.474;11.106;2023-06-22T04:07:04;20.40;99.90
46356;DHT22;32066;49.474;11.106;2023-06-22T04:09:36;20.50;99.90
46356;DHT22;32066;49.474;11.106;2023-06-22T04:12:05;20.40;99.90
46356;DHT22;32066;49.474;11.106;2023-06-22T04:14:34;20.40;99.90
46356;DHT22;32066;49.474;11.106;2023-06-22T04:17:03;20.40;99.90
46356;DHT22;32066;49.474;11.106;2023-06-22T04:19:32;20.30;99.90
46356;DHT22;32066;49.474;11.106;2023-06-22T04:22:01;20.40;99.90
46356;DHT22;32066;49.474;11.106;2023-06-22T04:24:31;20.30;99.90
46356;DHT22;32066;49.474;11.106;2023-06-22T04:27:02;20.40;99.90
46356;DHT22;32066;49.474;11.106;2023-06-22T04:29:31;20.40;99.90
46356;DHT22;32066;49.474;11.106;2023-06-22T04:31:59;20.20;99.90
46356;DHT22;32066;49.474;11.106;2023-06-22T04:34:28;20.30;99.90
46356;DHT22;32066;49.474;11.106;2023-06-22T04:36:57;20.40;99.90
46356;DHT22;32066;49.474;11.106;2023-06-22T04:39:26;20.50;99.90
46356;DHT22;32066;49.474;11.106;2023-06-22T04:41:54;20.30;99.90
46356;DHT22;32066;49.474;11.106;2023-06-22T04:44:28;20.40;99.90
46356;DHT22;32066;49.474;11.106;2023-06-22T04:46:58;20.50;99.90
46356;DHT22;32066;49.474;11.106;2023-06-22T04:49:30;20.50;99.90
46356;DHT22;32066;49.474;11.106;2023-06-22T04:52:03;20.40;99.90
46356;DHT22;32066;49.474;11.106;2023-06-22T04:54:32;20.40;99.90
46356;DHT22;32066;49.474;11.106;2023-06-22T04:57:01;20.60;99.90
46356;DHT22;32066;49.474;11.106;2023-06-22T04:59:33;20.40;99.90
46356;DHT22;32066;49.474;11.106;2023-06-22T05:02:02;20.50;99.90
46356;DHT22;32066;49.474;11.106;2023-06-22T05:04:32;20.50;99.90
46356;DHT22;32066;49.474;11.106;2023-06-22T05:07:04;20.40;99.90
46356;DHT22;32066;49.474;11.106;2023-06-22T05:09:33;20.10;99.90
46356;DHT22;32066;49.474;11.106;2023-06-22T05:12:02;20.20;99.90
46356;DHT22;32066;49.474;11.106;2023-06-22T05:14:33;20.20;99.90
46356;DHT22;32066;49.474;11.106;2023-06-22T05:17:03;20.40;99.90
46356;DHT22;32066;49.474;11.106;2023-06-22T05:19:38;20.30;99.90
46356;DHT22;32066;49.474;11.106;2023-06-22T05:22:14;20.30;99.90
46356;DHT22;32066;49.474;11.106;2023-06-22T05:24:43;20.40;99.90
46356;DHT22;32066;49.474;11.106;2023-06-22T05:27:11;20.40;99.90
46356;DHT22;32066;49.474;11.106;2023-06-22T05:29:43;20.60;99.90
46356;DHT22;32066;49.474;11.106;2023-06-22T05:32:11;20.70;99.90
46356;DHT22;32066;49.474;11.106;2023-06-22T05:34:40;20.60;99.90
46356;DHT22;32066;49.474;11.106;2023-06-22T05:37:08;20.70;99.90
46356;DHT22;32066;49.474;11.106;2023-06-22T05:39:38;20.80;99.90
46356;DHT22;32066;49.474;11.106;2023-06-22T05:42:07;20.90;99.90
46356;DHT22;32066;49.474;11.106;2023-06-22T05:44:36;20.90;99.90
46356;DHT22;32066;49.474;11.106;2023-06-22T05:47:09;21.10;99.90
46356;DHT22;32066;49.474;11.106;2023-06-22T05:49:37;21.10;99.90
46356;DHT22;32066;49.474;11.106;2023-06-22T05:52:06;21.30;99.90
46356;DHT22;32066;49.474;11.106;2023-06-22T05:54:35;21.40;99.90
46356;DHT22;32066;49.474;11.106;2023-06-22T05:57:04;21.60;99.90
46356;DHT22;32066;49.474;11.106;2023-06-22T05:59:33;21.60;99.90
46356;DHT22;32066;49.474;11.106;2023-06-22T06:02:02;21.70;99.90
46356;DHT22;32066;49.474;11.106;2023-06-22T06:04:33;21.90;99.90
46356;DHT22;32066;49.474;11.106;2023-06-22T06:07:02;22.00;99.90
46356;DHT22;32066;49.474;11.106;2023-06-22T06:09:31;22.10;99.90
46356;DHT22;32066;49.474;11.106;2023-06-22T06:11:59;22.30;99.90
46356;DHT22;32066;49.474;11.106;2023-06-22T06:14:29;22.40;99.90
46356;DHT22;32066;49.474;11.106;2023-06-22T06:16:57;22.50;99.90
46356;DHT22;32066;49.474;11.106;2023-06-22T06:19:26;22.70;99.90
46356;DHT22;32066;49.474;11.106;2023-06-22T06:21:57;22.80;99.90
46356;DHT22;32066;49.474;11.106;2023-06-22T06:24:26;22.80;99.90
46356;DHT22;32066;49.474;11.106;2023-06-22T06:26:54;22.90;99.90
46356;DHT22;32066;49.474;11.106;2023-06-22T06:29:23;23.00;99.90
46356;DHT22;32066;49.474;11.106;2023-06-22T06:31:52;23.10;99.90
46356;DHT22;32066;49.474;11.106;2023-06-22T06:34:20;23.20;99.90
46356;DHT22;32066;49.474;11.106;2023-06-22T06:36:49;23.30;99.90
46356;DHT22;32066;49.474;11.106;2023-06-22T06:39:20;23.30;99.90
46356;DHT22;32066;49.474;11.106;2023-06-22T06:41:50;23.40;99.90
46356;DHT22;32066;49.474;11.106;2023-06-22T06:44:19;23.40;99.90
46356;DHT22;32066;49.474;11.106;2023-06-22T06:46:48;23.60;99.90
46356;DHT22;32066;49.474;11.106;2023-06-22T06:49:16;23.60;99.90
46356;DHT22;32066;49.474;11.106;2023-06-22T06:51:45;23.70;99.90
46356;DHT22;32066;49.474;11.106;2023-06-22T06:54:13;23.80;99.90
46356;DHT22;32066;49.474;11.106;2023-06-22T06:56:45;23.80;99.70
46356;DHT22;32066;49.474;11.106;2023-06-22T06:59:14;24.10;99.90
46356;DHT22;32066;49.474;11.106;2023-06-22T07:01:43;24.10;99.50
46356;DHT22;32066;49.474;11.106;2023-06-22T07:04:14;24.30;99.40
46356;DHT22;32066;49.474;11.106;2023-06-22T07:06:43;24.30;98.80
46356;DHT22;32066;49.474;11.106;2023-06-22T07:09:11;24.40;98.90
46356;DHT22;32066;49.474;11.106;2023-06-22T07:11:40;24.50;98.90
46356;DHT22;32066;49.474;11.106;2023-06-22T07:14:11;24.60;98.80
46356;DHT22;32066;49.474;11.106;2023-06-22T07:16:40;24.70;98.60
46356;DHT22;32066;49.474;11.106;2023-06-22T07:19:10;24.80;98.40
46356;DHT22;32066;49.474;11.106;2023-06-22T07:21:39;24.80;98.20
46356;DHT22;32066;49.474;11.106;2023-06-22T07:24:08;25.00;98.20
46356;DHT22;32066;49.474;11.106;2023-06-22T07:26:36;25.10;97.70
46356;DHT22;32066;49.474;11.106;2023-06-22T07:29:05;24.80;97.20
46356;DHT22;32066;49.474;11.106;2023-06-22T07:31:36;24.90;97.80
46356;DHT22;32066;49.474;11.106;2023-06-22T07:34:06;25.10;97.50
46356;DHT22;32066;49.474;11.106;2023-06-22T07:36:35;25.30;97.50
46356;DHT22;32066;49.474;11.106;2023-06-22T07:39:04;25.30;96.90
46356;DHT22;32066;49.474;11.106;2023-06-22T07:41:32;25.40;96.80
46356;DHT22;32066;49.474;11.106;2023-06-22T07:44:02;25.50;96.70
46356;DHT22;32066;49.474;11.106;2023-06-22T07:46:32;25.70;96.60
46356;DHT22;32066;49.474;11.106;2023-06-22T07:49:03;25.70;96.60
46356;DHT22;32066;49.474;11.106;2023-06-22T07:51:33;25.90;96.00
46356;DHT22;32066;49.474;11.106;2023-06-22T07:54:02;26.00;95.60
46356;DHT22;32066;49.474;11.106;2023-06-22T07:56:31;26.10;95.30
46356;DHT22;32066;49.474;11.106;2023-06-22T07:58:59;26.20;95.40
46356;DHT22;32066;49.474;11.106;2023-06-22T08:01:29;26.30;95.30
46356;DHT22;32066;49.474;11.106;2023-06-22T08:03:58;26.40;95.00
46356;DHT22;32066;49.474;11.106;2023-06-22T08:06:29;26.50;94.60
46356;DHT22;32066;49.474;11.106;2023-06-22T08:08:58;26.50;94.40
46356;DHT22;32066;49.474;11.106;2023-06-22T08:11:27;26.60;94.50
46356;DHT22;32066;49.474;11.106;2023-06-22T08:13:55;26.70;94.00
46356;DHT22;32066;49.474;11.106;2023-06-22T08:16:24;26.80;94.30
46356;DHT22;32066;49.474;11.106;2023-06-22T08:18:52;26.70;93.50
46356;DHT22;32066;49.474;11.106;2023-06-22T08:21:22;27.00;93.60
46356;DHT22;32066;49.474;11.106;2023-06-22T08:23:53;26.90;92.90
46356;DHT22;32066;49.474;11.106;2023-06-22T08:26:22;27.00;93.20
46356;DHT22;32066;49.474;11.106;2023-06-22T08:28:50;27.20;93.20
46356;DHT22;32066;49.474;11.106;2023-06-22T08:31:19;27.20;93.10
46356;DHT22;32066;49.474;11.106;2023-06-22T08:33:47;27.40;92.60
46356;DHT22;32066;49.474;11.106;2023-06-22T08:36:16;27.60;92.30
46356;DHT22;32066;49.474;11.106;2023-06-22T08:38:45;27.70;92.30
46356;DHT22;32066;49.474;11.106;2023-06-22T08:41:19;27.70;92.10
46356;DHT22;32066;49.474;11.106;2023-06-22T08:43:48;27.80;91.70
46356;DHT22;32066;49.474;11.106;2023-06-22T08:46:16;27.80;91.50
46356;DHT22;32066;49.474;11.106;2023-06-22T08:48:48;27.30;91.80
46356;DHT22;32066;49.474;11.106;2023-06-22T08:51:16;27.30;91.50
46356;DHT22;32066;49.474;11.106;2023-06-22T08:53:45;27.50;91.70
46356;DHT22;32066;49.474;11.106;2023-06-22T08:56:14;27.70;91.60
46356;DHT22;32066;49.474;11.106;2023-06-22T08:58:45;27.90;91.20
46356;DHT22;32066;49.474;11.106;2023-06-22T09:01:14;28.00;90.20
46356;DHT22;32066;49.474;11.106;2023-06-22T09:03:43;28.00;88.30
46356;DHT22;32066;49.474;11.106;2023-06-22T09:06:19;28.20;88.80
46356;DHT22;32066;49.474;11.106;2023-06-22T09:08:48;28.40;87.70
46356;DHT22;32066;49.474;11.106;2023-06-22T09:11:17;28.50;87.60
46356;DHT22;32066;49.474;11.106;2023-06-22T09:13:48;28.60;86.00
46356;DHT22;32066;49.474;11.106;2023-06-22T09:16:17;28.30;86.10
46356;DHT22;32066;49.474;11.106;2023-06-22T09:18:47;28.50;87.50
46356;DHT22;32066;49.474;11.106;2023-06-22T09:21:16;28.60;87.00
46356;DHT22;32066;49.474;11.106;2023-06-22T09:23:44;28.60;84.90
46356;DHT22;32066;49.474;11.106;2023-06-22T09:26:16;28.60;84.80
46356;DHT22;32066;49.474;11.106;2023-06-22T09:28:48;28.80;84.50
46356;DHT22;32066;49.474;11.106;2023-06-22T09:31:17;28.80;82.80
46356;DHT22;32066;49.474;11.106;2023-06-22T09:33:51;28.80;83.50
46356;DHT22;32066;49.474;11.106;2023-06-22T09:36:21;28.80;83.40
46356;DHT22;32066;49.474;11.106;2023-06-22T09:38:50;29.10;83.50
46356;DHT22;32066;49.474;11.106;2023-06-22T09:41:24;29.10;82.40
46356;DHT22;32066;49.474;11.106;2023-06-22T09:43:55;29.20;81.70
46356;DHT22;32066;49.474;11.106;2023-06-22T09:46:24;29.30;80.60
46356;DHT22;32066;49.474;11.106;2023-06-22T09:48:53;29.40;81.50
46356;DHT22;32066;49.474;11.106;2023-06-22T09:51:22;29.30;79.30
46356;DHT22;32066;49.474;11.106;2023-06-22T09:53:51;29.30;80.30
46356;DHT22;32066;49.474;11.106;2023-06-22T09:56:20;29.60;81.10
46356;DHT22;32066;49.474;11.106;2023-06-22T09:58:48;29.60;79.30
46356;DHT22;32066;49.474;11.106;2023-06-22T10:01:21;29.40;78.60
46356;DHT22;32066;49.474;11.106;2023-06-22T10:03:52;29.30;79.30
46356;DHT22;32066;49.474;11.106;2023-06-22T10:06:22;29.40;79.50
46356;DHT22;32066;49.474;11.106;2023-06-22T10:08:51;29.40;79.40
46356;DHT22;32066;49.474;11.106;2023-06-22T10:11:19;29.50;78.90
46356;DHT22;32066;49.474;11.106;2023-06-22T10:13:52;29.50;79.20
46356;DHT22;32066;49.474;11.106;2023-06-22T10:16:29;29.60;79.00
46356;DHT22;32066;49.474;11.106;2023-06-22T10:18:58;29.90;78.80
46356;DHT22;32066;49.474;11.106;2023-06-22T10:21:27;29.90;78.90
46356;DHT22;32066;49.474;11.106;2023-06-22T10:23:57;29.80;77.80
46356;DHT22;32066;49.474;11.106;2023-06-22T10:26:31;29.90;77.20
46356;DHT22;32066;49.474;11.106;2023-06-22T10:29:01;29.90;78.10
46356;DHT22;32066;49.474;11.106;2023-06-22T10:31:33;29.90;77.70
46356;DHT22;32066;49.474;11.106;2023-06-22T10:34:01;30.10;77.10
46356;DHT22;32066;49.474;11.106;2023-06-22T10:36:30;30.20;78.50
46356;DHT22;32066;49.474;11.106;2023-06-22T10:38:59;30.50;76.60
46356;DHT22;32066;49.474;11.106;2023-06-22T10:41:28;30.20;75.70
46356;DHT22;32066;49.474;11.106;2023-06-22T10:43:57;30.20;75.50
46356;DHT22;32066;49.474;11.106;2023-06-22T10:46:27;30.30;75.20
46356;DHT22;32066;49.474;11.106;2023-06-22T10:48:58;30.20;75.90
46356;DHT22;32066;49.474;11.106;2023-06-22T10:51:27;30.20;76.00
46356;DHT22;32066;49.474;11.106;2023-06-22T10:53:57;30.40;75.00
46356;DHT22;32066;49.474;11.106;2023-06-22T10:56:25;30.30;74.90
46356;DHT22;32066;49.474;11.106;2023-06-22T10:58:54;30.20;74.90
46356;DHT22;32066;49.474;11.106;2023-06-22T11:01:22;30.30;75.80
46356;DHT22;32066;49.474;11.106;2023-06-22T11:03:51;30.60;76.20
46356;DHT22;32066;49.474;11.106;2023-06-22T11:06:22;30.70;73.60
46356;DHT22;32066;49.474;11.106;2023-06-22T11:08:51;30.60;73.10
46356;DHT22;32066;49.474;11.106;2023-06-22T11:11:19;30.60;73.00
46356;DHT22;32066;49.474;11.106;2023-06-22T11:13:48;30.60;72.70
46356;DHT22;32066;49.474;11.106;2023-06-22T11:16:17;30.90;73.20
46356;DHT22;32066;49.474;11.106;2023-06-22T11:18:45;31.20;73.50
46356;DHT22;32066;49.474;11.106;2023-06-22T11:21:14;31.30;73.50
46356;DHT22;32066;49.474;11.106;2023-06-22T11:23:45;31.40;71.60
46356;DHT22;32066;49.474;11.106;2023-06-22T11:26:14;31.10;72.40
46356;DHT22;32066;49.474;11.106;2023-06-22T11:28:42;30.90;72.40
46356;DHT22;32066;49.474;11.106;2023-06-22T11:31:11;31.00;71.50
46356;DHT22;32066;49.474;11.106;2023-06-22T11:33:40;31.10;72.00
46356;DHT22;32066;49.474;11.106;2023-06-22T11:36:10;31.40;71.80
46356;DHT22;32066;49.474;11.106;2023-06-22T11:38:39;31.30;70.90
46356;DHT22;32066;49.474;11.106;2023-06-22T11:41:10;31.20;71.20
46356;DHT22;32066;49.474;11.106;2023-06-22T11:43:39;30.90;71.30
46356;DHT22;32066;49.474;11.106;2023-06-22T11:46:08;31.00;72.20
46356;DHT22;32066;49.474;11.106;2023-06-22T11:48:36;31.10;71.50
46356;DHT22;32066;49.474;11.106;2023-06-22T11:51:05;31.30;70.30
46356;DHT22;32066;49.474;11.106;2023-06-22T11:53:34;31.20;70.30
46356;DHT22;32066;49.474;11.106;2023-06-22T11:56:03;31.40;70.40
46356;DHT22;32066;49.474;11.106;2023-06-22T11:58:34;31.70;71.40
46356;DHT22;32066;49.474;11.106;2023-06-22T12:01:03;31.90;68.90
46356;DHT22;32066;49.474;11.106;2023-06-22T12:03:31;31.80;69.50
46356;DHT22;32066;49.474;11.106;2023-06-22T12:06:00;31.80;70.30
46356;DHT22;32066;49.474;11.106;2023-06-22T12:08:29;32.10;70.00
46356;DHT22;32066;49.474;11.106;2023-06-22T12:10:57;32.40;68.00
46356;DHT22;32066;49.474;11.106;2023-06-22T12:13:26;32.50;69.30
46356;DHT22;32066;49.474;11.106;2023-06-22T12:15:57;32.50;68.80
46356;DHT22;32066;49.474;11.106;2023-06-22T12:18:26;32.50;67.90
46356;DHT22;32066;49.474;11.106;2023-06-22T12:20:54;32.20;67.40
46356;DHT22;32066;49.474;11.106;2023-06-22T12:23:23;32.20;67.50
46356;DHT22;32066;49.474;11.106;2023-06-22T12:25:51;32.50;68.20
46356;DHT22;32066;49.474;11.106;2023-06-22T12:28:20;32.80;67.50
46356;DHT22;32066;49.474;11.106;2023-06-22T12:30:49;33.10;66.50
46356;DHT22;32066;49.474;11.106;2023-06-22T12:33:20;32.80;64.90
46356;DHT22;32066;49.474;11.106;2023-06-22T12:35:49;32.70;65.40
46356;DHT22;32066;49.474;11.106;2023-06-22T12:38:17;32.60;64.10
46356;DHT22;32066;49.474;11.106;2023-06-22T12:40:46;32.80;65.30
46356;DHT22;32066;49.474;11.106;2023-06-22T12:43:15;32.80;65.10
46356;DHT22;32066;49.474;11.106;2023-06-22T12:45:44;32.70;66.60
46356;DHT22;32066;49.474;11.106;2023-06-22T12:48:12;32.50;64.40
46356;DHT22;32066;49.474;11.106;2023-06-22T12:50:45;32.50;65.00
46356;DHT22;32066;49.474;11.106;2023-06-22T12:53:14;32.70;66.10
46356;DHT22;32066;49.474;11.106;2023-06-22T12:55:43;32.90;64.20
46356;DHT22;32066;49.474;11.106;2023-06-22T12:58:11;32.80;63.70
46356;DHT22;32066;49.474;11.106;2023-06-22T13:00:40;32.80;63.20
46356;DHT22;32066;49.474;11.106;2023-06-22T13:03:08;32.80;63.00
46356;DHT22;32066;49.474;11.106;2023-06-22T13:05:37;32.80;64.30
46356;DHT22;32066;49.474;11.106;2023-06-22T13:08:08;32.60;64.50
46356;DHT22;32066;49.474;11.106;2023-06-22T13:10:37;32.40;64.10
46356;DHT22;32066;49.474;11.106;2023-06-22T13:13:05;32.50;64.10
46356;DHT22;32066;49.474;11.106;2023-06-22T13:15:34;32.50;64.60
46356;DHT22;32066;49.474;11.106;2023-06-22T13:18:03;32.50;64.80
46356;DHT22;32066;49.474;11.106;2023-06-22T13:20:31;32.60;64.80
46356;DHT22;32066;49.474;11.106;2023-06-22T13:23:00;32.50;64.40
46356;DHT22;32066;49.474;11.106;2023-06-22T13:25:31;32.60;64.70
46356;DHT22;32066;49.474;11.106;2023-06-22T13:28:00;32.80;65.00
46356;DHT22;32066;49.474;11.106;2023-06-22T13:30:28;32.80;65.00
46356;DHT22;32066;49.474;11.106;2023-06-22T13:32:57;32.90;64.00
46356;DHT22;32066;49.474;11.106;2023-06-22T13:35:26;32.80;63.60
46356;DHT22;32066;49.474;11.106;2023-06-22T13:37:55;32.60;62.70
46356;DHT22;32066;49.474;11.106;2023-06-22T13:40:23;32.60;63.30
46356;DHT22;32066;49.474;11.106;2023-06-22T13:42:55;32.60;63.90
46356;DHT22;32066;49.474;11.106;2023-06-22T13:45:23;32.20;63.20
46356;DHT22;32066;49.474;11.106;2023-06-22T13:47:52;32.30;64.50
46356;DHT22;32066;49.474;11.106;2023-06-22T13:50:20;32.30;64.50
46356;DHT22;32066;49.474;11.106;2023-06-22T13:52:49;32.30;63.80
46356;DHT22;32066;49.474;11.106;2023-06-22T13:55:18;32.40;64.40
46356;DHT22;32066;49.474;11.106;2023-06-22T13:57:47;32.60;65.00
46356;DHT22;32066;49.474;11.106;2023-06-22T14:00:20;32.80;64.60
46356;DHT22;32066;49.474;11.106;2023-06-22T14:02:48;33.10;63.80
46356;DHT22;32066;49.474;11.106;2023-06-22T14:05:17;33.20;64.20
46356;DHT22;32066;49.474;11.106;2023-06-22T14:07:46;33.40;63.90
46356;DHT22;32066;49.474;11.106;2023-06-22T14:10:14;33.10;62.90
46356;DHT22;32066;49.474;11.106;2023-06-22T14:12:43;32.90;62.50
46356;DHT22;32066;49.474;11.106;2023-06-22T14:15:13;33.00;62.90
46356;DHT22;32066;49.474;11.106;2023-06-22T14:17:44;33.20;62.90
46356;DHT22;32066;49.474;11.106;2023-06-22T14:20:12;33.10;62.20
46356;DHT22;32066;49.474;11.106;2023-06-22T14:22:41;33.20;63.00
46356;DHT22;32066;49.474;11.106;2023-06-22T14:25:10;33.30;62.90
46356;DHT22;32066;49.474;11.106;2023-06-22T14:27:38;33.40;62.70
46356;DHT22;32066;49.474;11.106;2023-06-22T14:30:07;33.30;63.20
46356;DHT22;32066;49.474;11.106;2023-06-22T14:32:36;33.40;65.60
46356;DHT22;32066;49.474;11.106;2023-06-22T14:35:07;33.50;63.80
46356;DHT22;32066;49.474;11.106;2023-06-22T14:37:36;33.50;63.20
46356;DHT22;32066;49.474;11.106;2023-06-22T14:40:06;33.30;61.60
46356;DHT22;32066;49.474;11.106;2023-06-22T14:42:35;33.10;62.20
46356;DHT22;32066;49.474;11.106;2023-06-22T14:45:05;33.10;62.60
46356;DHT22;32066;49.474;11.106;2023-06-22T14:47:33;33.20;62.90
46356;DHT22;32066;49.474;11.106;2023-06-22T14:50:02;33.10;62.80
46356;DHT22;32066;49.474;11.106;2023-06-22T14:52:34;33.20;64.10
46356;DHT22;32066;49.474;11.106;2023-06-22T14:55:03;33.00;62.00
46356;DHT22;32066;49.474;11.106;2023-06-22T14:57:32;32.90;62.30
46356;DHT22;32066;49.474;11.106;2023-06-22T15:00:00;33.10;62.90
46356;DHT22;32066;49.474;11.106;2023-06-22T15:02:29;33.30;63.00
46356;DHT22;32066;49.474;11.106;2023-06-22T15:04:58;33.30;62.50
46356;DHT22;32066;49.474;11.106;2023-06-22T15:07:26;33.30;62.00
46356;DHT22;32066;49.474;11.106;2023-06-22T15:09:58;33.50;62.50
46356;DHT22;32066;49.474;11.106;2023-06-22T15:12:26;33.70;62.60
46356;DHT22;32066;49.474;11.106;2023-06-22T15:14:55;33.70;61.30
46356;DHT22;32066;49.474;11.106;2023-06-22T15:17:23;33.60;61.70
46356;DHT22;32066;49.474;11.106;2023-06-22T15:19:54;33.50;61.50
46356;DHT22;32066;49.474;11.106;2023-06-22T15:22:23;33.60;61.90
46356;DHT22;32066;49.474;11.106;2023-06-22T15:24:52;33.70;61.10
46356;DHT22;32066;49.474;11.106;2023-06-22T15:27:26;33.80;60.60
46356;DHT22;32066;49.474;11.106;2023-06-22T15:29:55;33.80;60.90